Latest Coastal Weather Observations for Jervis Bay Airfield

IDN60701

Issued at 3:41 am EST Tuesday 28 June 2022 (issued every 10 minutes, with the page automatically refreshed every 10 minutes)

About coastal observations | Map of coastal stations | Coastal observations for NSW | Marine services | Other Formats
Station Details ID: 068264 Name: JERVIS BAY AIRFIELD AWS Lat: -35.14 Lon: 150.70 Height: 57.18 m
Data from the previous 72 hours. | See also: Recent months at Jervis Bay Airfield
Date/Time
EST
Wind Sea
Height
m
Swell Vis
km
Cloud Weather Temp
°C
Press
MSL
hPa
Rain since
9am
mm
Dir  Spd
kts
Gust
kts
Height
m
Period
s
Dir
28/03:30am SW 13 19 - - - - 10 Partly cloudy - 10.7 1029.3 0.0
28/03:00am SW 12 19 - - - - 10 Cloudy - 10.1 1029.5 0.0
28/02:30am WSW 13 21 - - - - 10 Cloudy - 10.2 1029.6 0.0
28/02:00am WSW 13 17 - - - - 10 Cloudy - 10.4 1029.9 0.0
28/01:30am SW 15 20 - - - - 10 Partly cloudy - 10.9 1029.9 0.0
28/01:00am WSW 13 19 - - - - 10 Cloudy - 10.6 1030.0 0.0
28/12:30am SW 12 22 - - - - 10 Partly cloudy - 11.4 1029.9 0.0
28/12:13am SW 15 25 - - - - 10 Partly cloudy - 11.0 1030.0 0.0
28/12:00am SW 15 22 - - - - 10 Cloudy - 11.2 1030.1 0.0
 
Date/Time
EST
Wind Sea
Height
m
Swell Vis
km
Cloud Weather Temp
°C
Press
MSL
hPa
Rain since
9am
mm
Dir  Spd
kts
Gust
kts
Height
m
Period
s
Dir
27/11:30pm SW 14 19 - - - - 10 Partly cloudy - 11.5 1030.2 0.0
27/11:00pm SSW 15 22 - - - - 10 Partly cloudy - 12.1 1030.2 0.0
27/10:30pm SSW 17 25 - - - - 10 Partly cloudy - 12.1 1030.2 0.0
27/10:00pm SSW 17 29 - - - - 10 Partly cloudy - 11.4 1030.1 0.0
27/09:52pm SSW 16 29 - - - - 10 Partly cloudy - 11.8 1030.2 0.0
27/09:30pm SSW 16 25 - - - - 10 Partly cloudy - 11.7 1030.2 0.0
27/09:05pm SSW 16 28 - - - - 10 Partly cloudy - 12.4 1030.1 0.0
27/09:00pm SSW 16 23 - - - - 10 Cloudy - 12.6 1030.0 0.0
27/08:30pm S 16 25 - - - - 10 Partly cloudy - 12.6 1030.0 0.0
27/08:03pm SSW 17 27 - - - - 10 Partly cloudy - 12.8 1029.9 0.0
27/08:00pm SSW 18 27 - - - - 10 Partly cloudy - 12.8 1029.8 0.0
27/07:30pm SSW 15 24 - - - - 10 Partly cloudy - 12.9 1029.7 0.0
27/07:00pm SSW 17 27 - - - - 10 Partly cloudy - 12.7 1029.4 0.0
27/06:45pm SSW 15 26 - - - - 10 Partly cloudy - 12.5 1029.3 0.0
27/06:30pm S 14 26 - - - - 10 Partly cloudy - 11.3 1029.2 0.0
27/06:14pm SSW 15 26 - - - - 10 Partly cloudy - 12.2 1029.0 0.0
27/06:00pm SSW 15 23 - - - - 10 Cloudy - 12.8 1028.7 0.0
27/05:30pm SSW 17 24 - - - - 10 Partly cloudy - 12.8 1028.7 0.0
27/05:00pm SSW 18 28 - - - - 10 Partly cloudy - 12.9 1028.2 0.0
27/04:42pm SSW 16 26 - - - - 10 Partly cloudy - 12.5 1028.0 0.0
27/04:30pm SSW 16 23 - - - - 10 Partly cloudy - 12.4 1028.0 0.0
27/04:00pm SSW 17 25 - - - - 10 Partly cloudy - 13.0 1027.7 0.0
27/03:30pm SSW 16 27 - - - - 10 Partly cloudy - 13.4 1027.7 0.0
27/03:08pm SSW 17 27 - - - - 10 Partly cloudy - 13.5 1027.6 0.0
27/03:00pm SSW 16 24 - - - - 10 Partly cloudy - 13.4 1027.6 0.0
27/02:32pm SSW 17 29 - - - - 10 Partly cloudy - 13.3 1027.3 0.0
27/02:30pm SSW 17 24 - - - - 10 Partly cloudy - 13.4 1027.3 0.0
27/02:02pm SSW 17 27 - - - - 10 Partly cloudy - 13.8 1027.2 0.0
27/02:00pm SSW 19 27 - - - - 10 Partly cloudy - 13.5 1027.2 0.0
27/01:37pm SSW 17 29 - - - - 10 Partly cloudy - 12.9 1027.3 0.0
27/01:30pm SSW 19 27 - - - - 10 Cloudy - 12.8 1027.4 0.0
27/01:00pm SSW 17 27 - - - - 10 Partly cloudy - 13.1 1027.3 0.0
27/12:30pm SSW 16 24 - - - - 10 Partly cloudy - 13.0 1027.2 0.0
27/12:06pm SW 16 26 - - - - 10 Partly cloudy - 13.1 1027.4 0.0
27/12:00pm SSW 17 25 - - - - 10 Mostly clear - 13.3 1027.4 0.0
27/11:30am SSW 17 27 - - - - 10 Partly cloudy - 12.9 1027.3 0.0
27/11:27am SW 16 27 - - - - 10 Partly cloudy - 12.9 1027.3 0.0
27/11:00am SW 17 25 - - - - 10 Partly cloudy - 12.4 1027.5 0.0
27/10:43am SSW 17 27 - - - - 10 Partly cloudy - 12.8 1027.5 0.0
27/10:30am SW 16 23 - - - - 10 Partly cloudy - 12.9 1027.6 0.0
27/10:19am SSW 16 26 - - - - 10 Partly cloudy - 12.5 1027.5 0.0
27/10:00am SSW 18 27 - - - - 10 Partly cloudy - 13.0 1027.4 0.0
27/09:35am SSW 17 29 - - - - 10 Partly cloudy - 12.8 1027.1 0.0
27/09:30am SSW 16 24 - - - - 10 Partly cloudy - 13.1 1027.1 0.0
27/09:00am SSW 18 26 - - - - 10 Partly cloudy - 13.0 1026.6 0.0
27/08:30am SW 12 20 - - - - 10 Partly cloudy - 12.8 1026.4 0.0
27/08:00am SSW 12 17 - - - - 10 Partly cloudy - 12.6 1026.1 0.0
27/07:30am SW 11 17 - - - - 10 Partly cloudy - 11.8 1025.9 0.0
27/07:00am SW 9 15 - - - - 10 Partly cloudy - 12.1 1025.6 0.0
27/06:30am SW 14 23 - - - - 10 Partly cloudy - 12.3 1025.3 0.0
27/06:00am SW 13 20 - - - - 10 Cloudy - 12.1 1025.0 0.0
27/05:30am WSW 10 13 - - - - 10 Partly cloudy - 11.7 1024.4 0.0
27/05:00am WSW 11 19 - - - - 10 Partly cloudy - 11.8 1024.2 0.0
27/04:30am WSW 12 17 - - - - 10 Partly cloudy - 11.8 1024.0 0.0
27/04:00am WSW 12 18 - - - - 10 Partly cloudy - 11.9 1023.7 0.0
27/03:30am SW 13 19 - - - - 10 Partly cloudy - 12.1 1023.6 0.0
27/03:00am WSW 12 18 - - - - 10 Partly cloudy - 12.2 1023.6 0.0
27/02:30am WSW 11 17 - - - - 10 Partly cloudy - 12.0 1023.5 0.0
27/02:00am WSW 10 14 - - - - 10 Cloudy - 11.7 1023.6 0.0
27/01:30am WSW 10 13 - - - - 10 Partly cloudy - 11.8 1023.6 0.0
27/01:00am WSW 8 10 - - - - 10 Partly cloudy - 11.0 1023.8 0.0
27/12:30am WSW 9 11 - - - - 10 Partly cloudy - 10.9 1023.8 0.0
27/12:00am W 9 10 - - - - 10 Mostly clear - 10.2 1023.8 0.0
 
Date/Time
EST
Wind Sea
Height
m
Swell Vis
km
Cloud Weather Temp
°C
Press
MSL
hPa
Rain since
9am
mm
Dir  Spd
kts
Gust
kts
Height
m
Period
s
Dir
26/11:30pm W 8 9 - - - - 10 Partly cloudy - 10.4 1023.8 0.0
26/11:00pm W 8 10 - - - - 10 - - 10.8 1023.9 0.0
26/10:30pm W 6 7 - - - - 10 Partly cloudy - 11.0 1023.8 0.0
26/10:00pm W 7 9 - - - - 10 - - 11.0 1023.8 0.0
26/09:30pm W 6 8 - - - - 10 - - 10.8 1023.9 0.0
26/09:00pm WNW 5 6 - - - - 10 Mostly cloudy - 11.2 1023.7 0.0
26/08:30pm WNW 5 7 - - - - 10 - - 10.9 1023.6 0.0
26/08:00pm WNW 6 8 - - - - 10 - - 10.3 1023.5 0.0
26/07:30pm WNW 5 6 - - - - 10 - - 10.2 1023.3 0.0
26/07:00pm W 3 5 - - - - 10 - - 9.7 1023.3 0.0
26/06:30pm CALM 0 0 - - - - 10 - - 9.9 1022.9 0.0
26/06:00pm CALM 0 0 - - - - 10 Mostly cloudy - 10.3 1022.7 0.0
26/05:30pm CALM 0 0 - - - - 10 - - 11.4 1022.6 0.0
26/05:00pm NW 4 7 - - - - 10 Partly cloudy - 12.4 1022.4 0.0
26/04:30pm NNW 3 4 - - - - 10 Partly cloudy - 13.4 1022.2 0.0
26/04:00pm ENE 3 4 - - - - 10 - - 14.5 1022.0 0.0
26/03:30pm E 3 4 - - - - 10 Partly cloudy - 15.3 1021.9 0.0
26/03:00pm SSE 4 6 - - - - 10 Mostly clear - 15.8 1022.0 0.0
26/02:30pm SSE 5 7 - - - - 10 Partly cloudy - 16.1 1021.8 0.0
26/02:00pm SSE 7 9 - - - - 10 Partly cloudy - 16.2 1021.8 0.0
26/01:30pm S 7 9 - - - - 10 - - 16.3 1021.8 0.0
26/01:00pm SSW 8 10 - - - - 10 - - 16.7 1021.9 0.0
26/12:30pm SSW 7 10 - - - - 10 - - 16.8 1022.1 0.0
26/12:00pm SSW 7 9 - - - - 10 - - 16.6 1022.6 0.0
26/11:30am SSW 7 10 - - - - 10 - - 16.6 1022.9 0.0
26/11:00am WNW 7 10 - - - - 10 - - 16.6 1023.1 0.0
26/10:30am W 7 10 - - - - 10 - - 15.8 1023.1 0.0
26/10:00am WNW 7 10 - - - - 10 - - 15.2 1023.5 0.0
26/09:30am WNW 8 11 - - - - 10 - - 14.3 1023.3 0.0
26/09:00am WNW 7 10 - - - - 10 - - 13.1 1023.3 0.0
26/08:30am NW 7 10 - - - - 10 - - 11.9 1023.1 0.0
26/08:00am NW 7 9 - - - - 10 - - 10.3 1023.0 0.0
26/07:30am WNW 6 8 - - - - 10 - - 9.1 1022.8 0.0
26/07:00am NW 7 9 - - - - 10 - - 8.9 1022.6 0.0
26/06:30am NW 6 7 - - - - 10 - - 8.7 1022.5 0.0
26/06:00am NW 3 4 - - - - 10 - - 5.7 1022.4 0.0
26/05:30am CALM 0 0 - - - - 10 - - 6.4 1021.9 0.0
26/05:00am WNW 3 4 - - - - 10 - - 7.1 1021.8 0.0
26/04:30am WNW 6 9 - - - - 10 - - 8.5 1021.8 0.0
26/04:00am NNE 1 3 - - - - 10 - - 7.2 1021.8 0.0
26/03:30am N 5 7 - - - - 10 - - 7.1 1021.7 0.0
26/03:00am WNW 4 6 - - - - 10 - - 7.3 1021.7 0.0
26/02:30am WNW 3 4 - - - - 10 - - 6.8 1021.8 0.0
26/02:00am NW 3 4 - - - - 10 - - 6.9 1021.8 0.0
26/01:30am CALM 0 1 - - - - 10 - - 7.2 1021.8 0.0
26/01:00am NNW 5 7 - - - - 10 - - 8.8 1021.8 0.0
26/12:30am W 5 8 - - - - 10 - - 10.9 1021.8 0.0
26/12:00am W 9 13 - - - - 10 - - 11.7 1021.7 0.0
 
Date/Time
EST
Wind Sea
Height
m
Swell Vis
km
Cloud Weather Temp
°C
Press
MSL
hPa
Rain since
9am
mm
Dir  Spd
kts
Gust
kts
Height
m
Period
s
Dir
25/11:30pm W 6 10 - - - - 10 - - 10.7 1021.8 0.0
25/11:00pm W 7 11 - - - - 10 - - 11.3 1021.8 0.0
25/10:30pm W 7 10 - - - - 10 - - 11.5 1021.7 0.0
25/10:00pm W 6 8 - - - - 10 - - 11.1 1021.7 0.0
25/09:30pm W 5 8 - - - - 10 - - 10.8 1021.7 0.0
25/09:00pm WSW 5 6 - - - - 10 - - 10.7 1021.8 0.0
25/08:30pm W 7 8 - - - - 10 - - 11.7 1021.6 0.0
25/08:00pm WNW 6 9 - - - - 10 - - 12.5 1021.7 0.0
25/07:30pm WNW 8 10 - - - - 10 - - 12.9 1021.3 0.0
25/07:00pm WNW 7 10 - - - - 10 - - 12.8 1021.3 0.0
25/06:30pm WNW 6 8 - - - - 10 - - 12.4 1021.0 0.0
25/06:00pm W 3 5 - - - - 10 - - 11.8 1020.6 0.0
25/05:30pm NW 4 7 - - - - 10 - - 12.1 1020.2 0.0
25/05:00pm WNW 3 4 - - - - 10 - - 14.1 1020.0 0.0
25/04:30pm WNW 3 4 - - - - 10 - - 16.1 1019.7 0.0
25/04:00pm WNW 5 9 - - - - 10 - - 17.0 1019.5 0.0
25/03:30pm W 6 9 - - - - 10 - - 17.7 1019.3 0.0
25/03:00pm W 8 11 - - - - 10 - - 18.0 1019.1 0.0
25/02:30pm W 10 14 - - - - 10 - - 18.1 1018.9 0.0
25/02:00pm W 12 17 - - - - 10 - - 18.3 1018.8 0.0
25/01:30pm W 11 16 - - - - 10 - - 18.2 1018.7 0.0
25/01:00pm W 11 16 - - - - 10 - - 18.1 1018.9 0.0
25/12:30pm W 9 13 - - - - 10 - - 17.9 1019.2 0.0
25/12:00pm W 11 15 - - - - 10 - - 17.5 1019.5 0.0
25/11:30am W 10 15 - - - - 10 - - 17.4 1019.8 0.0
25/11:00am WNW 9 12 - - - - 10 - - 16.4 1020.1 0.0
25/10:30am WNW 8 12 - - - - 10 - - 15.8 1020.3 0.0
25/10:00am WNW 9 13 - - - - 10 - - 14.8 1020.4 0.0
25/09:30am WNW 7 10 - - - - 10 - - 14.4 1020.2 0.0
25/09:00am WNW 7 9 - - - - 10 - - 13.6 1020.0 0.0
25/08:30am W 5 8 - - - - 10 - - 13.0 1019.7 0.0
25/08:00am WNW 5 8 - - - - 10 - - 12.3 1019.6 0.0
25/07:30am WNW 5 8 - - - - 10 - - 11.5 1019.4 0.0
25/07:00am WNW 9 12 - - - - 10 - - 11.9 1019.2 0.0
25/06:30am WNW 7 9 - - - - 10 - - 11.0 1019.1 0.0
25/06:00am W 6 8 - - - - 10 Partly cloudy - 10.9 1018.8 0.0
25/05:30am W 6 7 - - - - 10 - - 10.5 1018.3 0.0
25/05:00am WSW 5 6 - - - - 10 - - 10.6 1018.0 0.0
25/04:30am W 3 5 - - - - 10 - - 10.7 1017.9 0.0
25/04:00am WNW 6 8 - - - - 10 - - 11.7 1017.6 0.0

Other formats

Comma delimited format used in spreadsheet applications
http://www.bom.gov.au/fwo/IDN60701/IDN60701.94751.axf

JavaScript Object Notation format (JSON) in row-major order
http://www.bom.gov.au/fwo/IDN60701/IDN60701.94751.json

Data quality

Most of these data are generated automatically and are frequently updated. Quality checks on data are not normally performed. It is possible for incorrect values to appear. Refer to information at About Latest Weather Observations and please check the disclaimer before using these data.